Search METAR Data

METAR Data for ENKB:

ENKB 241620Z 34005KT 290V050 9999 FEW023 SCT062 04/M01 Q1009 RMK WIND 745FT 34008KT